createdAt,value
2018-06-19T00:01:51.294Z,6.37
2018-06-19T00:04:19.609Z,6.90
2018-06-19T00:06:47.909Z,7.60
2018-06-19T00:09:16.256Z,7.40
2018-06-19T00:11:44.560Z,6.70
2018-06-19T00:14:12.885Z,7.27
2018-06-19T00:16:41.252Z,7.23
2018-06-19T00:19:09.790Z,7.33
2018-06-19T00:21:57.629Z,6.97
2018-06-19T00:24:25.989Z,7.73
2018-06-19T00:26:54.296Z,7.23
2018-06-19T00:29:22.617Z,7.77
2018-06-19T00:31:50.917Z,7.87
2018-06-19T00:34:19.231Z,7.10
2018-06-19T00:36:47.550Z,7.30
2018-06-19T00:39:15.891Z,6.73
2018-06-19T00:41:44.233Z,7.57
2018-06-19T00:44:12.570Z,7.60
2018-06-19T00:46:43.188Z,6.80
2018-06-19T00:49:11.695Z,7.33
2018-06-19T00:51:40.011Z,7.17
2018-06-19T00:54:08.304Z,6.83
2018-06-19T00:56:48.036Z,6.60
2018-06-19T00:59:16.353Z,7.97
2018-06-19T01:01:44.689Z,7.27
2018-06-19T01:04:13.090Z,7.43
2018-06-19T01:06:41.425Z,7.33
2018-06-19T01:09:10.245Z,7.23
2018-06-19T01:11:38.848Z,7.37
2018-06-19T01:14:07.143Z,7.57
2018-06-19T01:16:35.498Z,7.70
2018-06-19T01:19:03.801Z,7.50
2018-06-19T01:21:32.139Z,7.93
2018-06-19T01:24:00.435Z,7.30
2018-06-19T01:26:28.757Z,7.40
2018-06-19T01:28:57.061Z,7.77
2018-06-19T01:31:25.378Z,7.70
2018-06-19T01:33:53.701Z,7.83
2018-06-19T01:36:22.225Z,6.93
2018-06-19T01:38:50.890Z,7.17
2018-06-19T01:41:19.592Z,8.10
2018-06-19T01:43:47.894Z,7.73
2018-06-19T01:46:16.207Z,7.33
2018-06-19T01:48:44.501Z,7.67
2018-06-19T01:51:12.818Z,8.10
2018-06-19T01:53:41.122Z,7.43
2018-06-19T01:56:09.441Z,7.10
2018-06-19T01:58:38.020Z,7.17
2018-06-19T02:01:06.349Z,7.07
2018-06-19T02:03:34.650Z,7.67
2018-06-19T02:06:02.981Z,7.17
2018-06-19T02:08:31.279Z,7.27
2018-06-19T02:10:59.584Z,7.30
2018-06-19T02:13:27.872Z,8.00
2018-06-19T02:15:56.189Z,7.70
2018-06-19T02:18:24.508Z,7.57
2018-06-19T02:20:52.820Z,8.27
2018-06-19T02:23:21.126Z,8.97
2018-06-19T02:25:49.461Z,10.03
2018-06-19T02:28:17.769Z,10.50
2018-06-19T02:30:46.112Z,12.83
2018-06-19T02:33:14.405Z,11.87
2018-06-19T02:35:42.737Z,13.20
2018-06-19T02:38:11.056Z,12.60
2018-06-19T02:40:39.443Z,10.13
2018-06-19T02:43:07.742Z,11.53
2018-06-19T02:45:36.061Z,11.20
2018-06-19T02:48:04.373Z,10.13
2018-06-19T02:50:32.704Z,9.43
2018-06-19T02:53:01.017Z,7.80
2018-06-19T02:55:29.533Z,7.10
2018-06-19T02:57:57.853Z,7.70
2018-06-19T03:00:26.225Z,7.60
2018-06-19T03:02:54.514Z,7.93
2018-06-19T03:05:22.880Z,8.30
2018-06-19T03:07:51.204Z,10.77
2018-06-19T03:10:19.529Z,9.90
2018-06-19T03:12:47.857Z,9.77
2018-06-19T03:15:16.153Z,9.77
2018-06-19T03:17:44.561Z,9.17
2018-06-19T03:20:12.860Z,9.40
2018-06-19T03:22:41.172Z,8.43
2018-06-19T03:25:09.469Z,9.97
2018-06-19T03:27:37.785Z,9.97
2018-06-19T03:30:06.100Z,10.17
2018-06-19T03:32:34.463Z,9.17
2018-06-19T03:35:02.769Z,9.87
2018-06-19T03:37:31.086Z,9.97
2018-06-19T03:39:59.387Z,9.63
2018-06-19T03:42:27.697Z,9.53
2018-06-19T03:44:56.012Z,10.17
2018-06-19T03:47:24.348Z,11.63
2018-06-19T03:49:52.693Z,10.43
2018-06-19T03:52:21.035Z,12.33
2018-06-19T03:54:49.338Z,12.07
2018-06-19T03:57:17.661Z,11.50
2018-06-19T03:59:45.713Z,12.53
2018-06-19T04:02:14.035Z,11.13
2018-06-19T04:04:42.332Z,10.30
2018-06-19T04:07:10.661Z,9.53
2018-06-19T04:09:38.957Z,10.37
2018-06-19T04:12:07.327Z,9.60
2018-06-19T04:14:35.637Z,10.10
2018-06-19T04:17:03.991Z,11.07
2018-06-19T04:19:32.291Z,9.80
2018-06-19T04:22:00.610Z,8.80
2018-06-19T04:24:28.913Z,8.40
2018-06-19T04:26:57.224Z,9.10
2018-06-19T04:29:25.520Z,8.10
2018-06-19T04:31:53.846Z,9.17
2018-06-19T04:34:22.160Z,9.37
2018-06-19T04:36:50.517Z,9.13
2018-06-19T04:39:18.864Z,9.10
2018-06-19T04:41:47.177Z,9.97
2018-06-19T04:44:15.486Z,8.93
2018-06-19T04:46:43.873Z,8.73
2018-06-19T04:49:12.185Z,9.17
2018-06-19T04:51:40.533Z,8.67
2018-06-19T04:54:08.855Z,9.67
2018-06-19T04:56:37.153Z,9.57
2018-06-19T04:59:05.469Z,9.40
2018-06-19T05:01:33.804Z,9.47
2018-06-19T05:04:02.146Z,9.77
2018-06-19T05:06:30.460Z,9.17
2018-06-19T05:08:58.780Z,9.10
2018-06-19T05:11:27.066Z,7.50
2018-06-19T05:13:55.380Z,8.07
2018-06-19T05:16:23.673Z,8.40
2018-06-19T05:18:52.014Z,7.80
2018-06-19T05:21:20.312Z,7.70
2018-06-19T05:23:48.646Z,7.80
2018-06-19T05:26:16.943Z,7.90
2018-06-19T05:28:45.248Z,7.50
2018-06-19T05:31:13.542Z,7.77
2018-06-19T05:33:41.856Z,6.60
2018-06-19T05:36:10.157Z,6.00
2018-06-19T05:38:38.476Z,6.83
2018-06-19T05:41:06.841Z,6.17
2018-06-19T05:43:35.467Z,6.80
2018-06-19T05:46:04.846Z,7.13
2018-06-19T05:48:33.301Z,7.33
2018-06-19T05:51:01.608Z,6.23
2018-06-19T05:53:29.936Z,7.47
2018-06-19T05:55:58.237Z,6.53
2018-06-19T05:58:26.559Z,7.30
2018-06-19T06:00:54.862Z,7.37
2018-06-19T06:03:24.678Z,6.90
2018-06-19T06:05:53.097Z,6.53
2018-06-19T06:08:21.329Z,5.90
2018-06-19T06:10:49.982Z,6.73
2018-06-19T06:13:18.301Z,6.77
2018-06-19T06:15:46.583Z,6.70
2018-06-19T06:18:14.940Z,5.77
2018-06-19T06:20:43.231Z,6.53
2018-06-19T06:23:11.565Z,4.67
2018-06-19T06:25:39.860Z,5.87
2018-06-19T06:28:08.179Z,6.50
2018-06-19T06:30:36.467Z,6.50
2018-06-19T06:33:04.777Z,6.17
2018-06-19T06:35:33.064Z,6.57
2018-06-19T06:38:01.377Z,5.73
2018-06-19T06:40:29.831Z,5.37
2018-06-19T06:42:58.146Z,3.73
2018-06-19T06:45:26.437Z,3.47
2018-06-19T06:47:54.756Z,5.17
2018-06-19T06:50:23.103Z,6.10
2018-06-19T06:52:51.642Z,5.80
2018-06-19T06:55:19.936Z,5.77
2018-06-19T06:57:48.264Z,4.33
2018-06-19T07:00:16.576Z,6.23
2018-06-19T07:02:44.885Z,5.97
2018-06-19T07:05:13.209Z,5.10
2018-06-19T07:07:41.499Z,5.00
2018-06-19T07:10:09.976Z,5.10
2018-06-19T07:12:38.920Z,5.13
2018-06-19T07:15:07.265Z,6.40
2018-06-19T07:17:35.912Z,5.00
2018-06-19T07:20:04.574Z,5.50
2018-06-19T07:22:32.915Z,5.93
2018-06-19T07:25:01.211Z,6.30
2018-06-19T07:27:29.514Z,5.87
2018-06-19T07:29:57.820Z,6.17
2018-06-19T07:32:26.121Z,6.00
2018-06-19T07:34:54.448Z,5.57
2018-06-19T07:37:22.737Z,6.37
2018-06-19T07:39:50.805Z,6.07
2018-06-19T07:42:19.083Z,5.60
2018-06-19T07:44:47.137Z,5.70
2018-06-19T07:47:15.428Z,5.27
2018-06-19T07:49:43.477Z,5.03
2018-06-19T07:52:11.789Z,5.50
2018-06-19T07:54:40.091Z,4.93
2018-06-19T07:57:08.388Z,5.23
2018-06-19T07:59:36.710Z,5.20
2018-06-19T08:02:05.006Z,4.50
2018-06-19T08:04:33.320Z,4.67
2018-06-19T08:07:05.841Z,4.80
2018-06-19T08:09:34.149Z,5.13
2018-06-19T08:12:02.489Z,4.50
2018-06-19T08:14:30.801Z,4.43
2018-06-19T08:16:59.100Z,4.47
2018-06-19T08:19:27.436Z,4.67
2018-06-19T08:21:55.725Z,4.10
2018-06-19T08:24:24.043Z,4.10
2018-06-19T08:26:52.332Z,4.00
2018-06-19T08:29:20.633Z,4.10
2018-06-19T08:31:48.929Z,4.30
2018-06-19T08:34:17.237Z,3.73
2018-06-19T08:36:45.785Z,4.33
2018-06-19T08:39:14.804Z,4.07
2018-06-19T08:41:44.274Z,3.70
2018-06-19T08:44:12.901Z,3.60
2018-06-19T08:46:42.116Z,3.30
2018-06-19T08:49:11.513Z,3.47
2018-06-19T08:51:39.813Z,3.40
2018-06-19T08:54:08.120Z,2.70
2018-06-19T08:56:36.846Z,2.60
2018-06-19T08:59:05.133Z,2.77
2018-06-19T09:01:34.100Z,2.50
2018-06-19T09:04:02.773Z,2.07
2018-06-19T09:06:31.087Z,1.70
2018-06-19T09:08:59.392Z,1.60
2018-06-19T09:11:27.721Z,1.70
2018-06-19T09:13:56.104Z,1.60
2018-06-19T09:16:24.418Z,1.30
2018-06-19T09:18:53.005Z,1.20
2018-06-19T09:21:21.316Z,1.30
2018-06-19T09:23:49.793Z,1.50
2018-06-19T09:26:18.101Z,1.47
2018-06-19T09:28:46.388Z,1.50
2018-06-19T09:31:14.716Z,1.30
2018-06-19T09:33:42.986Z,1.40
2018-06-19T09:36:11.297Z,1.30
2018-06-19T09:38:39.592Z,1.10
2018-06-19T09:41:07.925Z,1.30
2018-06-19T09:43:36.213Z,1.40
2018-06-19T09:46:04.605Z,1.33
2018-06-19T09:48:32.904Z,1.30
2018-06-19T09:51:01.251Z,1.23
2018-06-19T09:53:29.641Z,1.30
2018-06-19T09:55:58.032Z,0.97
2018-06-19T09:58:26.606Z,0.90
2018-06-19T10:00:55.220Z,1.00
2018-06-19T10:03:23.653Z,1.00
2018-06-19T10:05:51.958Z,1.07
2018-06-19T10:08:20.265Z,1.03
2018-06-19T10:10:48.596Z,0.93
2018-06-19T10:13:16.901Z,1.03
2018-06-19T10:15:45.275Z,1.00
2018-06-19T10:18:13.597Z,1.30
2018-06-19T10:20:41.905Z,1.27
2018-06-19T10:23:10.198Z,1.43
2018-06-19T10:25:38.510Z,1.33
2018-06-19T10:28:06.804Z,1.40
2018-06-19T10:30:35.129Z,1.30
2018-06-19T10:33:03.416Z,1.23
2018-06-19T10:35:31.725Z,1.53
2018-06-19T10:38:00.061Z,1.40
2018-06-19T10:40:28.355Z,1.47
2018-06-19T10:42:56.678Z,1.37
2018-06-19T10:45:24.974Z,1.30
2018-06-19T10:47:53.295Z,1.30
2018-06-19T10:50:21.581Z,1.30
2018-06-19T10:52:50.039Z,1.20
2018-06-19T10:55:18.277Z,1.20
2018-06-19T10:57:46.607Z,1.20
2018-06-19T11:00:14.897Z,1.17
2018-06-19T11:02:43.232Z,1.30
2018-06-19T11:05:11.579Z,1.03
2018-06-19T11:07:39.850Z,1.20
2018-06-19T11:10:08.142Z,0.90
2018-06-19T11:12:36.469Z,1.00
2018-06-19T11:15:04.978Z,1.00
2018-06-19T11:17:33.291Z,1.20
2018-06-19T11:20:01.691Z,1.27
2018-06-19T11:22:30.020Z,1.10
2018-06-19T11:24:58.322Z,0.93
2018-06-19T11:27:26.634Z,1.20
2018-06-19T11:29:54.918Z,1.17
2018-06-19T11:32:23.224Z,1.20
2018-06-19T11:34:51.545Z,1.10
2018-06-19T11:37:19.873Z,1.30
2018-06-19T11:39:48.165Z,1.10
2018-06-19T11:42:16.476Z,1.10
2018-06-19T11:44:44.795Z,0.90
2018-06-19T11:47:13.156Z,1.13
2018-06-19T11:49:41.449Z,1.10
2018-06-19T11:52:09.841Z,1.03
2018-06-19T11:54:38.153Z,1.10
2018-06-19T11:57:06.472Z,1.20
2018-06-19T11:59:34.776Z,1.10
2018-06-19T12:02:03.085Z,1.20
2018-06-19T12:04:31.378Z,1.10
2018-06-19T12:06:59.692Z,1.30
2018-06-19T12:09:27.982Z,1.20
2018-06-19T12:11:56.297Z,1.00
2018-06-19T12:14:24.587Z,1.20
2018-06-19T12:16:52.896Z,1.00
2018-06-19T12:19:21.237Z,0.93
2018-06-19T12:21:49.551Z,1.13
2018-06-19T12:24:17.894Z,0.90
2018-06-19T12:26:46.245Z,1.00
2018-06-19T12:29:14.592Z,1.10
2018-06-19T12:31:42.887Z,1.20
2018-06-19T12:34:11.208Z,1.07
2018-06-19T12:36:39.498Z,1.20
2018-06-19T12:39:09.749Z,1.07
2018-06-19T12:41:44.157Z,1.30
2018-06-19T12:44:12.549Z,1.20
2018-06-19T12:46:41.517Z,1.10
2018-06-19T12:49:10.226Z,1.07
2018-06-19T12:51:59.836Z,1.10
2018-06-19T12:54:42.613Z,1.20
2018-06-19T12:57:10.906Z,1.10
2018-06-19T12:59:39.220Z,1.10
2018-06-19T13:02:07.533Z,1.30
2018-06-19T13:04:47.333Z,1.07
2018-06-19T13:07:15.634Z,1.10
2018-06-19T13:09:43.970Z,1.20
2018-06-19T13:12:23.780Z,1.07
2018-06-19T13:14:52.093Z,1.10
2018-06-19T13:17:31.847Z,1.17
2018-06-19T13:20:11.484Z,1.00
2018-06-19T13:22:39.804Z,1.30
2018-06-19T13:25:08.093Z,1.20
2018-06-19T13:27:36.415Z,1.20
2018-06-19T13:30:15.990Z,1.30
2018-06-19T13:32:44.305Z,1.43
2018-06-19T13:35:12.608Z,1.43
2018-06-19T13:37:40.932Z,1.83
2018-06-19T13:41:25.560Z,1.80
2018-06-19T13:44:13.321Z,1.60
2018-06-19T13:46:42.017Z,1.50
2018-06-19T13:49:10.327Z,1.90
2018-06-19T13:51:38.645Z,1.83
2018-06-19T13:54:06.985Z,2.00
2018-06-19T13:57:11.678Z,1.97
2018-06-19T13:59:40.385Z,2.07
2018-06-19T14:02:08.717Z,1.90
2018-06-19T14:04:37.028Z,2.20
2018-06-19T14:07:06.221Z,2.13
2018-06-19T14:09:47.109Z,2.30
2018-06-19T14:12:26.465Z,2.50
2018-06-19T14:14:56.054Z,2.30
2018-06-19T14:17:25.949Z,2.00
2018-06-19T14:19:55.265Z,1.97
2018-06-19T14:22:24.438Z,2.00
2018-06-19T14:24:52.749Z,2.10
2018-06-19T14:27:21.069Z,2.20
2018-06-19T14:29:49.394Z,1.87
2018-06-19T14:32:17.954Z,2.10
2018-06-19T14:34:46.264Z,2.30
2018-06-19T14:37:14.552Z,2.40
2018-06-19T14:39:42.860Z,2.30
2018-06-19T14:42:11.465Z,2.60
2018-06-19T14:44:39.940Z,2.30
2018-06-19T14:47:08.243Z,2.90
2018-06-19T14:49:36.565Z,2.50
2018-06-19T14:52:04.908Z,3.07
2018-06-19T14:54:33.218Z,2.67
2018-06-19T14:57:01.544Z,2.47
2018-06-19T14:59:29.868Z,2.67
2018-06-19T15:01:58.187Z,2.50
2018-06-19T15:04:26.505Z,2.70
2018-06-19T15:06:54.819Z,2.13
2018-06-19T15:09:23.132Z,2.87
2018-06-19T15:11:51.430Z,2.60
2018-06-19T15:14:19.734Z,2.50
2018-06-19T15:16:48.593Z,2.70
2018-06-19T15:19:16.949Z,3.03
2018-06-19T15:21:45.284Z,3.23
2018-06-19T15:24:13.603Z,2.60
2018-06-19T15:26:41.982Z,2.87
2018-06-19T15:29:10.329Z,2.57
2018-06-19T15:31:38.641Z,2.87
2018-06-19T15:34:06.995Z,2.90
2018-06-19T15:36:35.285Z,2.70
2018-06-19T15:39:05.039Z,2.60
2018-06-19T15:41:33.332Z,2.67
2018-06-19T15:44:01.657Z,2.80
2018-06-19T15:46:29.982Z,3.00
2018-06-19T15:48:58.309Z,2.67
2018-06-19T15:51:26.605Z,3.37
2018-06-19T15:53:54.926Z,3.00
2018-06-19T15:56:23.261Z,2.80
2018-06-19T15:58:51.628Z,2.83
2018-06-19T16:01:19.948Z,3.27
2018-06-19T16:03:48.245Z,2.90
2018-06-19T16:06:16.621Z,2.80
2018-06-19T16:08:44.907Z,3.10
2018-06-19T16:11:13.229Z,2.77
2018-06-19T16:13:41.534Z,2.67
2018-06-19T16:16:09.846Z,2.87
2018-06-19T16:18:38.176Z,2.70
2018-06-19T16:21:06.546Z,2.63
2018-06-19T16:23:34.844Z,2.47
2018-06-19T16:26:03.169Z,2.60
2018-06-19T16:28:31.462Z,2.40
2018-06-19T16:30:59.795Z,1.90
2018-06-19T16:33:28.124Z,2.30
2018-06-19T16:35:56.448Z,2.10
2018-06-19T16:38:24.736Z,2.30
2018-06-19T16:40:53.068Z,2.40
2018-06-19T16:43:21.086Z,2.23
2018-06-19T16:45:49.404Z,2.10
2018-06-19T16:48:17.769Z,2.43
2018-06-19T16:50:46.079Z,1.90
2018-06-19T16:53:14.366Z,2.23
2018-06-19T16:55:42.697Z,2.00
2018-06-19T16:58:10.980Z,2.23
2018-06-19T17:00:39.289Z,1.90
2018-06-19T17:03:07.577Z,2.10
2018-06-19T17:05:35.884Z,1.83
2018-06-19T17:08:04.201Z,1.80
2018-06-19T17:10:32.565Z,1.40
2018-06-19T17:13:00.877Z,1.23
2018-06-19T17:15:29.187Z,1.50
2018-06-19T17:17:57.482Z,1.60
2018-06-19T17:20:25.817Z,1.27
2018-06-19T17:22:54.111Z,1.70
2018-06-19T17:25:22.436Z,1.37
2018-06-19T17:27:50.730Z,1.57
2018-06-19T17:30:19.067Z,1.20
2018-06-19T17:32:47.356Z,1.60
2018-06-19T17:35:15.671Z,1.50
2018-06-19T17:37:43.978Z,1.50
2018-06-19T17:40:12.296Z,1.30
2018-06-19T17:42:40.590Z,1.30
2018-06-19T17:45:08.920Z,1.77
2018-06-19T17:47:37.221Z,1.50
2018-06-19T17:50:05.573Z,1.60
2018-06-19T17:52:33.877Z,1.63
2018-06-19T17:55:02.325Z,1.60
2018-06-19T17:57:30.635Z,1.30
2018-06-19T17:59:58.953Z,1.30
2018-06-19T18:02:27.242Z,1.23
2018-06-19T18:04:55.562Z,1.60
2018-06-19T18:07:23.892Z,1.70
2018-06-19T18:09:52.184Z,1.50
2018-06-19T18:12:20.597Z,1.57
2018-06-19T18:14:48.892Z,1.57
2018-06-19T18:17:17.209Z,1.50
2018-06-19T18:19:45.532Z,1.53
2018-06-19T18:22:14.165Z,1.60
2018-06-19T18:24:42.500Z,1.50
2018-06-19T18:27:10.805Z,1.47
2018-06-19T18:29:39.100Z,1.70
2018-06-19T18:32:07.433Z,1.60
2018-06-19T18:34:35.737Z,1.57
2018-06-19T18:37:04.066Z,1.80
2018-06-19T18:39:32.364Z,1.73
2018-06-19T18:42:00.692Z,1.43
2018-06-19T18:44:28.982Z,1.90
2018-06-19T18:46:57.305Z,1.83
2018-06-19T18:49:26.008Z,2.30
2018-06-19T18:51:54.319Z,2.00
2018-06-19T18:54:22.616Z,2.40
2018-06-19T18:56:50.928Z,1.97
2018-06-19T18:59:19.225Z,1.90
2018-06-19T19:01:47.537Z,2.60
2018-06-19T19:04:15.824Z,2.63
2018-06-19T19:06:44.144Z,2.33
2018-06-19T19:09:12.506Z,2.97
2018-06-19T19:11:40.820Z,2.50
2018-06-19T19:14:09.117Z,2.40
2018-06-19T19:16:42.804Z,2.43
2018-06-19T19:19:13.536Z,2.40
2018-06-19T19:21:41.868Z,2.60
2018-06-19T19:24:10.177Z,2.50
2018-06-19T19:26:43.802Z,2.50
2018-06-19T19:29:17.321Z,2.83
2018-06-19T19:31:45.644Z,2.60
2018-06-19T19:34:13.964Z,2.67
2018-06-19T19:36:47.646Z,2.90
2018-06-19T19:39:21.413Z,2.80
2018-06-19T19:41:49.750Z,2.67
2018-06-19T19:44:18.047Z,2.73
2018-06-19T19:46:51.821Z,2.57
2018-06-19T19:49:20.135Z,2.23
2018-06-19T19:51:48.445Z,2.40
2018-06-19T19:54:16.738Z,2.50
2018-06-19T19:56:50.412Z,2.40
2018-06-19T19:59:18.709Z,2.80
2018-06-19T20:01:47.044Z,2.70
2018-06-19T20:04:15.340Z,2.60
2018-06-19T20:06:43.661Z,2.57
2018-06-19T20:09:11.961Z,2.60
2018-06-19T20:11:40.269Z,2.57
2018-06-19T20:14:08.573Z,2.83
2018-06-19T20:16:36.889Z,3.00
2018-06-19T20:19:05.176Z,2.87
2018-06-19T20:21:33.516Z,3.50
2018-06-19T20:24:01.808Z,3.43
2018-06-19T20:26:29.848Z,2.60
2018-06-19T20:28:58.150Z,2.60
2018-06-19T20:31:26.467Z,2.80
2018-06-19T20:33:54.785Z,2.60
2018-06-19T20:36:23.096Z,2.70
2018-06-19T20:38:51.389Z,2.73
2018-06-19T20:41:19.699Z,3.00
2018-06-19T20:43:48.025Z,2.90
2018-06-19T20:46:16.337Z,3.30
2018-06-19T20:48:44.683Z,2.47
2018-06-19T20:51:12.985Z,2.50
2018-06-19T20:53:41.308Z,2.57
2018-06-19T20:56:09.597Z,3.37
2018-06-19T20:58:37.920Z,3.50
2018-06-19T21:01:06.449Z,3.00
2018-06-19T21:03:34.757Z,2.87
2018-06-19T21:06:03.122Z,2.70
2018-06-19T21:08:40.398Z,2.70
2018-06-19T21:11:10.273Z,3.10
2018-06-19T21:13:38.768Z,3.23
2018-06-19T21:16:07.429Z,3.47
2018-06-19T21:18:36.153Z,3.23
2018-06-19T21:21:04.462Z,3.27
2018-06-19T21:23:32.799Z,3.30
2018-06-19T21:26:01.148Z,2.77
2018-06-19T21:28:29.468Z,3.10
2018-06-19T21:30:57.757Z,3.40
2018-06-19T21:33:26.067Z,3.03
2018-06-19T21:35:54.357Z,3.30
2018-06-19T21:38:22.661Z,3.50
2018-06-19T21:40:50.977Z,3.53
2018-06-19T21:43:19.373Z,3.80
2018-06-19T21:45:47.664Z,3.77
2018-06-19T21:48:15.990Z,3.30
2018-06-19T21:50:44.292Z,3.70
2018-06-19T21:53:12.597Z,3.93
2018-06-19T21:55:40.896Z,3.73
2018-06-19T21:58:09.209Z,3.30
2018-06-19T22:00:37.548Z,3.57
2018-06-19T22:03:06.128Z,3.83
2018-06-19T22:05:34.429Z,3.80
2018-06-19T22:08:02.773Z,3.90
2018-06-19T22:10:31.061Z,3.60
2018-06-19T22:12:59.373Z,3.60
2018-06-19T22:15:27.670Z,3.73
2018-06-19T22:17:55.993Z,3.43
2018-06-19T22:20:24.281Z,3.63
2018-06-19T22:22:52.590Z,3.53
2018-06-19T22:25:20.900Z,3.40
2018-06-19T22:27:49.497Z,3.50
2018-06-19T22:30:17.789Z,4.13
2018-06-19T22:32:46.098Z,3.47
2018-06-19T22:35:14.380Z,3.53
2018-06-19T22:37:42.675Z,3.70
2018-06-19T22:40:10.989Z,3.97
2018-06-19T22:42:39.839Z,3.80
2018-06-19T22:45:08.145Z,4.10
2018-06-19T22:47:36.440Z,3.80
2018-06-19T22:50:04.771Z,4.10
2018-06-19T22:52:33.063Z,4.17
2018-06-19T22:55:01.384Z,3.97
2018-06-19T22:57:29.668Z,3.50
2018-06-19T22:59:57.981Z,3.50
2018-06-19T23:02:26.265Z,3.87
2018-06-19T23:04:54.581Z,3.50
2018-06-19T23:07:22.865Z,3.80
2018-06-19T23:09:51.169Z,3.20
2018-06-19T23:12:19.468Z,3.57
2018-06-19T23:14:47.773Z,4.20
2018-06-19T23:17:16.090Z,3.70
2018-06-19T23:19:44.398Z,3.83
2018-06-19T23:22:12.682Z,3.77
2018-06-19T23:24:41.009Z,3.53
2018-06-19T23:27:09.300Z,4.00
2018-06-19T23:29:37.633Z,4.20
2018-06-19T23:32:06.077Z,4.23
2018-06-19T23:34:34.386Z,3.87
2018-06-19T23:37:02.685Z,4.70
2018-06-19T23:39:30.997Z,4.30
2018-06-19T23:41:59.289Z,4.00
2018-06-19T23:44:27.597Z,4.30
2018-06-19T23:46:55.884Z,4.23
2018-06-19T23:49:23.920Z,3.73
2018-06-19T23:51:52.218Z,4.43
2018-06-19T23:54:20.528Z,4.50
2018-06-19T23:56:48.540Z,4.47
2018-06-19T23:59:16.844Z,4.60
